Time;durP1;ratioP1;P1;durP2;ratioP2;P2;SDS_P1;SDS_P2;PMS_P1;PMS_P2;Temp;Humidity;BMP_temperature;BMP_pressure;BME280_temperature;BME280_humidity;BME280_pressure;Samples;Min_cycle;Max_cycle;Signal;HPM_P1;HPM_P2
2020/12/24 00:01:25;;;;;;;1.37;0.20;;;9.30;99.90;;;;;;6186883;23;20035;-86
2020/12/24 00:03:50;;;;;;;1.90;0.30;;;9.30;99.90;;;;;;6211748;23;20336;-87
2020/12/24 00:06:16;;;;;;;0.83;0.17;;;9.30;99.90;;;;;;6186401;23;20067;-87
2020/12/24 00:08:42;;;;;;;0.53;0.20;;;9.30;99.90;;;;;;6208663;23;20001;-87
2020/12/24 00:11:08;;;;;;;0.43;0.20;;;9.30;99.90;;;;;;6212878;23;20035;-86
2020/12/24 00:13:34;;;;;;;0.80;0.17;;;9.30;99.90;;;;;;6211610;23;20391;-86
2020/12/24 00:16:01;;;;;;;0.37;0.10;;;9.40;99.90;;;;;;6213217;23;20004;-87
2020/12/24 00:18:26;;;;;;;1.60;0.27;;;9.50;99.90;;;;;;6213302;23;20004;-87
2020/12/24 00:20:52;;;;;;;0.20;0.10;;;9.40;99.90;;;;;;6211916;23;20331;-87
2020/12/24 00:23:18;;;;;;;0.90;0.13;;;9.40;99.90;;;;;;6211865;23;20023;-87
2020/12/24 00:25:44;;;;;;;0.90;0.20;;;9.40;99.90;;;;;;6212346;23;20009;-86
2020/12/24 00:28:10;;;;;;;1.20;0.20;;;9.30;99.90;;;;;;6212955;23;20082;-86
2020/12/24 00:30:40;;;;;;;1.00;0.30;;;9.40;99.90;;;;;;6212053;23;20092;-86
2020/12/24 00:33:07;;;;;;;0.60;0.20;;;9.40;99.90;;;;;;6212022;23;20000;-87
2020/12/24 00:35:32;;;;;;;1.63;0.20;;;9.30;99.90;;;;;;6212097;23;20051;-87
2020/12/24 00:37:58;;;;;;;2.03;0.20;;;9.30;99.90;;;;;;6211345;23;20012;-86
2020/12/24 00:40:23;;;;;;;1.30;0.23;;;9.30;99.90;;;;;;6211157;23;20091;-86
2020/12/24 00:42:49;;;;;;;0.70;0.20;;;9.30;99.90;;;;;;6213896;23;20011;-87
2020/12/24 00:45:14;;;;;;;1.17;0.10;;;9.20;99.90;;;;;;6212877;23;20005;-86
2020/12/24 00:47:40;;;;;;;1.97;0.30;;;9.20;99.90;;;;;;6186689;23;20428;-86
2020/12/24 00:50:05;;;;;;;3.43;0.30;;;9.20;99.90;;;;;;6211679;23;20084;-87
2020/12/24 00:52:31;;;;;;;2.87;0.30;;;9.10;99.90;;;;;;6211677;23;20455;-88
2020/12/24 00:54:56;;;;;;;1.80;0.30;;;9.10;99.90;;;;;;6211943;23;20005;-87
2020/12/24 00:57:22;;;;;;;2.27;0.20;;;9.20;99.90;;;;;;6211848;23;20004;-85
2020/12/24 00:59:48;;;;;;;1.87;0.20;;;9.10;99.90;;;;;;6213359;23;20455;-87
2020/12/24 01:02:13;;;;;;;0.70;0.10;;;9.10;99.90;;;;;;6188786;23;20012;-87
2020/12/24 01:04:39;;;;;;;0.20;0.00;;;9.10;99.90;;;;;;6213839;23;20012;-87
2020/12/24 01:07:04;;;;;;;2.70;0.30;;;9.10;99.90;;;;;;6189095;23;20011;-86
2020/12/24 01:09:30;;;;;;;4.53;0.30;;;9.10;99.90;;;;;;6214270;23;20623;-87
2020/12/24 01:11:55;;;;;;;1.73;0.30;;;9.00;99.90;;;;;;6215379;23;20016;-88
2020/12/24 01:14:21;;;;;;;0.90;0.20;;;8.90;99.90;;;;;;6217998;23;20371;-87
2020/12/24 01:16:47;;;;;;;1.80;0.20;;;8.90;99.90;;;;;;6191437;23;20063;-86
2020/12/24 01:19:12;;;;;;;0.67;0.20;;;8.80;99.90;;;;;;6191115;23;20024;-87
2020/12/24 01:21:38;;;;;;;2.47;0.20;;;8.80;99.90;;;;;;6219949;23;20001;-87
2020/12/24 01:24:03;;;;;;;1.40;0.30;;;8.80;99.90;;;;;;6219680;23;20000;-88
2020/12/24 01:26:29;;;;;;;1.50;0.30;;;8.80;99.90;;;;;;6213084;23;20386;-86
2020/12/24 01:28:55;;;;;;;1.43;0.20;;;8.80;99.90;;;;;;6188623;23;20020;-87
2020/12/24 01:31:20;;;;;;;1.13;0.17;;;8.70;99.90;;;;;;6213446;23;20008;-87
2020/12/24 01:33:46;;;;;;;2.90;0.47;;;8.70;99.90;;;;;;6213528;23;20004;-88
2020/12/24 01:36:11;;;;;;;3.40;0.40;;;8.70;99.90;;;;;;6188384;23;20094;-87
2020/12/24 01:38:40;;;;;;;0.67;0.20;;;8.60;99.90;;;;;;6215136;23;20079;-88
2020/12/24 01:41:06;;;;;;;3.50;0.47;;;8.60;99.90;;;;;;6214816;23;20080;-88
2020/12/24 01:43:32;;;;;;;1.13;0.20;;;8.60;99.90;;;;;;6188444;23;20041;-86
2020/12/24 01:45:58;;;;;;;4.50;0.30;;;8.50;99.90;;;;;;6212986;23;20111;-86
2020/12/24 01:48:24;;;;;;;1.63;0.20;;;8.50;99.90;;;;;;6216003;23;20007;-86
2020/12/24 01:50:50;;;;;;;0.77;0.20;;;8.40;99.90;;;;;;6217867;23;20000;-86
2020/12/24 01:53:24;;;;;;;2.17;0.20;;;8.40;99.90;;;;;;6213303;23;20009;-86
2020/12/24 01:55:50;;;;;;;0.73;0.27;;;8.40;99.90;;;;;;6219662;23;20059;-87
2020/12/24 01:58:17;;;;;;;1.00;0.20;;;8.40;99.90;;;;;;6212868;23;20013;-86
2020/12/24 02:00:46;;;;;;;2.53;0.20;;;8.40;99.90;;;;;;6214735;23;20035;-87
2020/12/24 02:03:13;;;;;;;1.20;0.30;;;8.40;99.90;;;;;;6186973;23;20005;-87
2020/12/24 02:05:38;;;;;;;1.53;0.20;;;8.50;99.90;;;;;;6212937;23;20340;-87
2020/12/24 02:08:04;;;;;;;1.93;0.20;;;8.50;99.90;;;;;;6214515;23;19996;-86
2020/12/24 02:10:30;;;;;;;1.17;0.20;;;8.50;99.90;;;;;;6212389;23;20008;-87
2020/12/24 02:12:55;;;;;;;2.03;0.20;;;8.50;99.90;;;;;;6187838;23;20410;-87
2020/12/24 02:15:21;;;;;;;0.93;0.17;;;8.50;99.90;;;;;;6213229;23;20035;-87
2020/12/24 02:17:46;;;;;;;1.60;0.30;;;8.50;99.90;;;;;;6214599;23;20004;-87
2020/12/24 02:20:12;;;;;;;1.93;0.20;;;8.50;99.90;;;;;;6212203;23;20000;-88
2020/12/24 02:22:38;;;;;;;2.93;0.27;;;8.50;99.90;;;;;;6214322;23;20001;-87
2020/12/24 02:25:04;;;;;;;0.67;0.20;;;8.40;99.90;;;;;;6213034;23;20062;-87
2020/12/24 02:27:29;;;;;;;1.90;0.20;;;8.30;99.90;;;;;;6188017;23;20115;-87
2020/12/24 02:29:55;;;;;;;0.90;0.20;;;8.30;99.90;;;;;;6213097;23;20028;-86
2020/12/24 02:32:20;;;;;;;7.60;1.87;;;8.20;99.90;;;;;;6213276;23;20004;-87
2020/12/24 02:34:46;;;;;;;0.83;0.13;;;8.20;99.90;;;;;;6216020;23;20012;-86
2020/12/24 02:37:12;;;;;;;1.73;0.30;;;8.10;99.90;;;;;;6219096;23;20162;-86
2020/12/24 02:39:38;;;;;;;1.63;0.30;;;8.10;99.90;;;;;;6212402;23;20004;-87
2020/12/24 02:42:04;;;;;;;1.10;0.30;;;8.00;99.90;;;;;;6188200;23;20011;-87
2020/12/24 02:44:29;;;;;;;1.37;0.20;;;8.00;99.90;;;;;;6214247;23;20335;-86
2020/12/24 02:46:55;;;;;;;2.67;0.40;;;7.90;99.90;;;;;;6212526;23;20434;-87
2020/12/24 02:49:20;;;;;;;1.97;0.40;;;7.90;99.90;;;;;;6213798;23;20072;-87
2020/12/24 02:51:46;;;;;;;2.27;0.40;;;7.90;99.90;;;;;;6213213;23;20012;-86
2020/12/24 02:54:11;;;;;;;2.07;0.40;;;7.90;99.90;;;;;;6212373;23;20032;-86
2020/12/24 02:56:37;;;;;;;5.23;0.30;;;7.80;99.90;;;;;;6207708;23;20008;-87
2020/12/24 02:59:03;;;;;;;2.20;0.30;;;7.80;99.90;;;;;;6187294;23;20429;-87
2020/12/24 03:01:28;;;;;;;2.57;0.30;;;7.70;99.90;;;;;;6213595;23;20039;-86
2020/12/24 03:03:54;;;;;;;1.23;0.13;;;7.70;99.90;;;;;;6219681;23;20047;-87
2020/12/24 03:06:19;;;;;;;1.10;0.20;;;7.60;99.90;;;;;;6222331;23;20031;-87
2020/12/24 03:08:45;;;;;;;1.50;0.20;;;7.60;99.90;;;;;;6221794;23;20009;-87
2020/12/24 03:11:11;;;;;;;2.87;0.33;;;7.60;99.90;;;;;;6218220;23;20339;-87
2020/12/24 03:13:36;;;;;;;2.13;0.30;;;7.60;99.90;;;;;;6216721;23;20000;-87
2020/12/24 03:16:02;;;;;;;1.20;0.13;;;7.50;99.90;;;;;;6218136;23;20001;-86
2020/12/24 03:18:27;;;;;;;0.73;0.27;;;7.60;99.90;;;;;;6215665;23;20011;-87
2020/12/24 03:20:53;;;;;;;0.87;0.20;;;7.50;99.90;;;;;;6215963;23;20112;-87
2020/12/24 03:23:19;;;;;;;1.27;0.20;;;7.50;99.90;;;;;;6220181;23;20027;-87
2020/12/24 03:25:44;;;;;;;0.43;0.10;;;7.50;99.90;;;;;;6214608;23;20055;-86
2020/12/24 03:28:10;;;;;;;1.90;0.17;;;7.50;99.90;;;;;;6189186;23;20100;-87
2020/12/24 03:30:35;;;;;;;2.20;0.10;;;7.50;99.90;;;;;;6211946;23;20008;-87
2020/12/24 03:33:01;;;;;;;3.40;0.20;;;7.40;99.90;;;;;;6214397;23;20028;-87
2020/12/24 03:35:26;;;;;;;1.97;0.20;;;7.40;99.90;;;;;;6212906;23;20438;-87
2020/12/24 03:37:52;;;;;;;0.50;0.10;;;7.30;99.90;;;;;;6213962;23;20011;-86
2020/12/24 03:40:18;;;;;;;1.40;0.20;;;7.30;99.90;;;;;;6187454;23;20012;-87
2020/12/24 03:42:43;;;;;;;2.63;0.20;;;7.30;99.90;;;;;;6212715;23;20040;-87
2020/12/24 03:45:09;;;;;;;0.77;0.10;;;7.30;99.90;;;;;;6212271;23;20015;-86
2020/12/24 03:47:34;;;;;;;1.30;0.17;;;7.30;99.90;;;;;;6186344;23;19997;-87
2020/12/24 03:50:00;;;;;;;2.10;0.20;;;7.30;99.90;;;;;;6211756;23;20004;-87
2020/12/24 03:52:25;;;;;;;2.27;0.20;;;7.30;99.90;;;;;;6212302;23;20380;-87
2020/12/24 03:54:51;;;;;;;2.93;0.30;;;7.30;99.90;;;;;;6212519;23;20000;-87
2020/12/24 03:57:17;;;;;;;0.63;0.10;;;7.30;99.90;;;;;;6215000;23;20395;-87
2020/12/24 03:59:42;;;;;;;2.40;0.20;;;7.30;99.90;;;;;;6216614;23;20439;-86
2020/12/24 04:02:08;;;;;;;1.30;0.10;;;7.30;99.90;;;;;;6216760;23;20062;-86
2020/12/24 04:04:33;;;;;;;0.50;0.13;;;7.30;99.90;;;;;;6192427;23;20008;-87
2020/12/24 04:06:59;;;;;;;0.90;0.20;;;7.30;99.90;;;;;;6213975;23;20005;-86
2020/12/24 04:09:25;;;;;;;0.10;0.00;;;7.30;99.90;;;;;;6213368;23;20075;-86
2020/12/24 04:11:50;;;;;;;1.37;0.20;;;7.30;99.90;;;;;;6187813;23;19996;-87
2020/12/24 04:14:16;;;;;;;3.77;0.23;;;7.30;99.90;;;;;;6212480;23;20011;-86
2020/12/24 04:16:42;;;;;;;2.87;0.20;;;7.20;99.90;;;;;;6213801;23;20042;-86
2020/12/24 04:19:07;;;;;;;2.17;0.80;;;7.20;99.90;;;;;;6213774;23;20065;-85
2020/12/24 04:21:33;;;;;;;0.80;0.20;;;7.20;99.90;;;;;;6185687;23;20059;-87
2020/12/24 04:23:59;;;;;;;0.97;0.20;;;7.30;99.90;;;;;;6186908;23;20028;-86
2020/12/24 04:26:24;;;;;;;0.60;0.10;;;7.20;99.90;;;;;;6213612;23;20684;-86
2020/12/24 04:28:50;;;;;;;0.93;0.13;;;7.20;99.90;;;;;;6211359;23;20091;-86
2020/12/24 04:31:16;;;;;;;1.17;0.33;;;7.20;99.90;;;;;;6187280;23;20400;-86
2020/12/24 04:33:43;;;;;;;2.07;0.77;;;7.20;99.90;;;;;;6186392;23;20015;-86
2020/12/24 04:36:12;;;;;;;0.93;0.40;;;7.20;99.90;;;;;;6213999;23;20420;-86
2020/12/24 04:38:37;;;;;;;2.00;0.20;;;7.10;99.90;;;;;;6211702;23;20004;-87
2020/12/24 04:41:03;;;;;;;2.43;0.30;;;7.10;99.90;;;;;;6214469;23;20001;-87
2020/12/24 04:43:28;;;;;;;1.17;0.20;;;7.10;99.90;;;;;;6212062;23;20451;-87
2020/12/24 04:45:55;;;;;;;3.17;0.20;;;7.10;99.90;;;;;;6213272;23;20001;-87
2020/12/24 04:48:21;;;;;;;1.40;0.20;;;7.10;99.90;;;;;;6213211;23;20020;-86
2020/12/24 04:50:52;;;;;;;1.17;0.20;;;7.10;99.90;;;;;;6213663;23;20016;-86
2020/12/24 04:53:19;;;;;;;1.73;0.17;;;7.10;99.90;;;;;;6208187;23;20000;-86
2020/12/24 04:55:45;;;;;;;1.83;0.20;;;7.10;99.90;;;;;;6184931;23;20151;-86
2020/12/24 04:58:11;;;;;;;1.27;0.20;;;7.10;99.90;;;;;;6211296;23;20004;-86
2020/12/24 05:00:37;;;;;;;1.60;0.10;;;7.00;99.90;;;;;;6210624;23;20062;-86
2020/12/24 05:03:09;;;;;;;1.07;0.10;;;7.00;99.90;;;;;;6186442;23;20092;-86
2020/12/24 05:05:35;;;;;;;1.17;0.10;;;6.90;99.90;;;;;;6213669;23;20082;-86
2020/12/24 05:08:03;;;;;;;0.60;0.13;;;6.90;99.90;;;;;;6186985;23;20008;-85
2020/12/24 05:10:29;;;;;;;1.70;0.20;;;6.80;99.90;;;;;;6211646;23;20024;-87
2020/12/24 05:12:55;;;;;;;0.63;0.10;;;6.80;99.90;;;;;;6213906;23;20004;-87
2020/12/24 05:15:31;;;;;;;2.63;0.20;;;6.70;99.90;;;;;;6212030;23;20008;-87
2020/12/24 05:18:14;;;;;;;6.13;0.20;;;6.70;99.90;;;;;;6213450;23;20028;-87
2020/12/24 05:20:41;;;;;;;0.67;0.30;;;6.70;99.90;;;;;;6212568;23;20046;-87
2020/12/24 05:23:11;;;;;;;0.50;0.10;;;6.60;99.90;;;;;;6213947;23;20075;-87
2020/12/24 05:25:36;;;;;;;2.00;0.10;;;6.60;99.90;;;;;;6187045;23;20440;-87
2020/12/24 05:28:02;;;;;;;0.67;0.10;;;6.50;99.90;;;;;;6215151;23;20128;-87
2020/12/24 05:30:27;;;;;;;1.23;0.40;;;6.50;99.90;;;;;;6212494;23;20095;-86
2020/12/24 05:32:53;;;;;;;5.03;0.10;;;6.50;99.90;;;;;;6187068;23;20043;-87
2020/12/24 05:35:23;;;;;;;2.63;0.30;;;6.50;99.90;;;;;;6212066;23;20088;-87
2020/12/24 05:37:53;;;;;;;2.53;0.20;;;6.50;99.90;;;;;;6213912;23;20098;-87
2020/12/24 05:40:27;;;;;;;1.80;0.20;;;6.40;99.90;;;;;;6211599;23;20380;-86
2020/12/24 05:42:55;;;;;;;1.13;0.20;;;6.40;99.90;;;;;;6186542;23;20008;-87
2020/12/24 05:45:23;;;;;;;1.80;0.27;;;6.40;99.90;;;;;;6213469;23;20428;-87
2020/12/24 05:48:07;;;;;;;0.57;0.10;;;6.40;99.90;;;;;;6213259;23;20052;-86
2020/12/24 05:50:33;;;;;;;1.30;0.20;;;6.40;99.90;;;;;;6187970;23;20011;-86
2020/12/24 05:53:12;;;;;;;4.00;0.20;;;6.40;99.90;;;;;;6213866;23;20001;-87
2020/12/24 05:55:40;;;;;;;2.60;0.30;;;6.50;99.90;;;;;;6214056;23;20059;-87
2020/12/24 05:58:07;;;;;;;3.47;0.33;;;6.40;99.90;;;;;;6215177;23;20008;-87
2020/12/24 06:00:35;;;;;;;1.77;0.30;;;6.40;99.90;;;;;;6213296;23;20009;-87
2020/12/24 06:03:15;;;;;;;2.53;0.33;;;6.40;99.90;;;;;;6188934;23;20009;-86
2020/12/24 06:05:58;;;;;;;0.13;0.10;;;6.40;99.90;;;;;;6190311;23;20091;-87
2020/12/24 06:08:29;;;;;;;2.00;0.20;;;6.40;99.90;;;;;;6190765;23;20007;-87
2020/12/24 06:11:02;;;;;;;2.77;0.30;;;6.40;99.90;;;;;;6190593;23;20387;-86
2020/12/24 06:13:43;;;;;;;2.47;0.30;;;6.30;99.90;;;;;;6191394;23;20005;-87
2020/12/24 06:16:13;;;;;;;1.70;0.30;;;6.30;99.90;;;;;;6197744;22;20100;-86
2020/12/24 06:18:41;;;;;;;0.50;0.20;;;6.20;99.90;;;;;;6159790;23;20001;-85
2020/12/24 06:21:18;;;;;;;2.13;0.40;;;6.20;99.90;;;;;;6159199;23;20005;-85
2020/12/24 06:23:57;;;;;;;4.50;0.27;;;6.20;99.90;;;;;;6159398;23;20040;-84
2020/12/24 06:26:30;;;;;;;1.70;0.10;;;6.30;99.90;;;;;;6173604;23;20420;-84
2020/12/24 06:29:00;;;;;;;2.53;0.30;;;6.30;99.90;;;;;;6209306;23;20454;-84
2020/12/24 06:31:27;;;;;;;5.10;0.50;;;6.40;99.90;;;;;;6177715;23;20009;-85
2020/12/24 06:33:53;;;;;;;2.50;0.30;;;6.40;99.90;;;;;;6189364;23;20088;-84
2020/12/24 06:36:37;;;;;;;2.33;0.30;;;6.40;99.90;;;;;;6189438;23;20036;-84
2020/12/24 06:39:04;;;;;;;4.17;0.40;;;6.40;99.90;;;;;;6214251;23;20384;-84
2020/12/24 06:41:36;;;;;;;1.43;0.33;;;6.40;99.90;;;;;;6214519;23;20388;-84
2020/12/24 06:44:03;;;;;;;1.73;0.22;;;6.40;99.90;;;;;;6214234;23;20036;-85
2020/12/24 06:46:28;;;;;;;1.13;0.20;;;6.40;99.90;;;;;;6213857;23;20008;-85
2020/12/24 06:49:04;;;;;;;5.03;0.53;;;6.40;99.90;;;;;;6214102;23;20288;-84
2020/12/24 06:51:49;;;;;;;4.30;0.73;;;6.40;99.90;;;;;;6214372;23;20011;-85
2020/12/24 06:54:33;;;;;;;4.17;0.60;;;6.40;99.90;;;;;;6214082;23;20087;-85
2020/12/24 06:57:18;;;;;;;2.97;0.40;;;6.40;99.90;;;;;;6213444;23;20419;-85
2020/12/24 06:59:44;;;;;;;1.93;0.33;;;6.40;99.90;;;;;;6215748;23;20004;-85
2020/12/24 07:02:10;;;;;;;7.57;0.70;;;6.40;99.90;;;;;;6189035;23;20015;-84
2020/12/24 07:04:39;;;;;;;4.60;0.33;;;6.40;99.90;;;;;;6213964;23;20658;-85
2020/12/24 07:07:06;;;;;;;8.30;0.57;;;6.40;99.90;;;;;;6215537;23;20000;-85
2020/12/24 07:09:31;;;;;;;5.10;0.63;;;6.30;99.90;;;;;;6214156;23;20312;-85
2020/12/24 07:11:58;;;;;;;3.73;0.50;;;6.30;99.90;;;;;;6189044;23;20117;-85
2020/12/24 07:14:28;;;;;;;4.27;0.50;;;6.30;99.90;;;;;;6213874;23;20001;-84
2020/12/24 07:16:56;;;;;;;4.33;0.67;;;6.40;99.90;;;;;;6215513;23;20439;-84
2020/12/24 07:19:22;;;;;;;3.70;0.50;;;6.40;99.90;;;;;;6213909;23;20032;-85
2020/12/24 07:21:53;;;;;;;4.17;0.57;;;6.40;99.90;;;;;;6214080;23;20005;-85
2020/12/24 07:24:27;;;;;;;3.17;0.40;;;6.50;99.90;;;;;;6213818;23;20005;-86
2020/12/24 07:26:57;;;;;;;2.93;0.40;;;6.50;99.90;;;;;;6215176;23;20467;-84
2020/12/24 07:29:25;;;;;;;5.67;0.60;;;6.50;99.90;;;;;;6189243;23;20012;-86
2020/12/24 07:31:54;;;;;;;1.83;0.27;;;6.50;99.90;;;;;;6213794;23;20016;-85
2020/12/24 07:34:24;;;;;;;4.80;0.70;;;6.50;99.90;;;;;;6213735;23;20428;-86
2020/12/24 07:37:02;;;;;;;6.40;0.57;;;6.60;99.90;;;;;;6213915;23;20015;-86
2020/12/24 07:39:27;;;;;;;5.47;0.80;;;6.60;99.90;;;;;;6214023;23;20020;-86
2020/12/24 07:41:59;;;;;;;4.33;0.73;;;6.60;99.90;;;;;;6213792;23;20343;-86
2020/12/24 07:44:25;;;;;;;6.28;0.68;;;6.60;99.90;;;;;;6213830;23;20091;-85
2020/12/24 07:46:59;;;;;;;4.33;0.47;;;6.70;99.90;;;;;;6214009;23;20043;-88
2020/12/24 07:49:25;;;;;;;4.57;0.67;;;6.70;99.90;;;;;;6189338;23;20000;-86
2020/12/24 07:51:58;;;;;;;3.93;0.40;;;6.80;99.90;;;;;;6214340;23;20091;-85
2020/12/24 07:54:25;;;;;;;5.37;0.50;;;6.80;99.90;;;;;;6214478;23;20375;-86
2020/12/24 07:56:52;;;;;;;6.50;0.87;;;6.80;99.90;;;;;;6214737;23;20015;-85
2020/12/24 07:59:18;;;;;;;7.13;0.57;;;6.90;99.90;;;;;;6214521;23;20012;-86
2020/12/24 08:01:44;;;;;;;5.30;0.87;;;6.90;99.90;;;;;;6214877;23;20412;-86
2020/12/24 08:04:10;;;;;;;5.83;0.40;;;6.90;99.90;;;;;;6214419;23;20443;-86
2020/12/24 08:06:36;;;;;;;4.50;0.70;;;6.90;99.90;;;;;;6214286;23;20015;-87
2020/12/24 08:09:12;;;;;;;4.07;0.60;;;6.90;99.90;;;;;;6189156;23;20007;-86
2020/12/24 08:11:52;;;;;;;7.87;1.43;;;7.00;99.90;;;;;;6215405;23;20011;-85
2020/12/24 08:14:28;;;;;;;4.37;0.37;;;7.00;99.90;;;;;;6216090;23;20431;-85
2020/12/24 08:17:15;;;;;;;4.37;1.00;;;7.00;99.90;;;;;;6216323;23;20013;-85
2020/12/24 08:20:10;;;;;;;7.13;0.50;;;7.10;99.90;;;;;;6214284;23;20067;-86
2020/12/24 08:23:00;;;;;;;4.93;0.43;;;7.20;99.90;;;;;;6183923;23;20096;-85
2020/12/24 08:25:27;;;;;;;6.27;0.70;;;7.20;99.90;;;;;;6183867;23;20012;-85
2020/12/24 08:27:57;;;;;;;6.07;0.60;;;7.20;99.90;;;;;;6178239;23;20424;-85
2020/12/24 08:30:24;;;;;;;3.93;0.57;;;7.20;99.90;;;;;;6214110;23;20016;-85
2020/12/24 08:32:50;;;;;;;3.90;0.40;;;7.20;99.90;;;;;;6190221;23;20005;-86
2020/12/24 08:35:15;;;;;;;3.57;0.57;;;7.20;99.90;;;;;;6214728;23;20043;-86
2020/12/24 08:37:42;;;;;;;4.97;0.30;;;7.20;99.90;;;;;;6214180;23;20059;-86
2020/12/24 08:40:22;;;;;;;1.80;0.27;;;7.10;99.90;;;;;;6214672;23;20036;-85
2020/12/24 08:42:53;;;;;;;2.67;0.20;;;7.10;99.90;;;;;;6189858;23;20008;-86
2020/12/24 08:45:19;;;;;;;3.10;0.37;;;7.00;99.90;;;;;;6214441;23;20004;-85
2020/12/24 08:47:44;;;;;;;2.97;0.50;;;7.00;99.90;;;;;;6214473;23;19997;-85
2020/12/24 08:50:10;;;;;;;2.87;0.30;;;6.90;99.90;;;;;;6214750;23;20032;-85
2020/12/24 08:52:37;;;;;;;3.37;0.40;;;6.90;99.90;;;;;;6214356;23;20396;-85
2020/12/24 08:55:06;;;;;;;2.47;0.30;;;6.80;99.90;;;;;;6214121;23;20051;-85
2020/12/24 08:57:51;;;;;;;3.90;0.40;;;6.80;99.90;;;;;;6213481;23;20092;-86
2020/12/24 09:00:28;;;;;;;2.20;0.40;;;6.80;99.90;;;;;;6214014;23;20070;-85
2020/12/24 09:02:54;;;;;;;3.87;0.30;;;6.70;99.90;;;;;;6214109;23;20001;-85
2020/12/24 09:05:24;;;;;;;2.90;0.40;;;6.70;99.90;;;;;;6213823;23;20011;-85
2020/12/24 09:07:50;;;;;;;1.07;0.27;;;6.70;99.90;;;;;;6215590;23;20364;-86
2020/12/24 09:10:27;;;;;;;1.97;0.30;;;6.70;99.90;;;;;;6217893;23;20001;-85
2020/12/24 09:12:57;;;;;;;4.13;0.40;;;6.80;99.90;;;;;;6218066;23;20001;-85
2020/12/24 09:15:26;;;;;;;2.00;0.30;;;6.80;99.90;;;;;;6214813;23;20032;-85
2020/12/24 09:17:56;;;;;;;1.60;0.23;;;6.80;99.90;;;;;;6215240;23;20013;-86
2020/12/24 09:20:33;;;;;;;2.03;0.27;;;6.80;99.90;;;;;;6217944;23;20089;-85
2020/12/24 09:23:11;;;;;;;4.23;0.67;;;6.80;99.90;;;;;;6218218;23;20448;-85
2020/12/24 09:25:41;;;;;;;3.57;0.40;;;6.90;99.90;;;;;;6217570;23;20470;-85
2020/12/24 09:28:27;;;;;;;0.90;0.20;;;6.90;99.90;;;;;;6192860;23;20036;-86
2020/12/24 09:30:57;;;;;;;3.27;0.37;;;6.90;99.90;;;;;;6217609;23;20076;-87
2020/12/24 09:33:24;;;;;;;1.83;0.20;;;6.90;99.90;;;;;;6217241;23;20055;-85
2020/12/24 09:35:49;;;;;;;1.73;0.20;;;6.90;99.90;;;;;;6217715;23;20004;-86
2020/12/24 09:38:15;;;;;;;4.70;0.60;;;7.00;99.90;;;;;;6215423;23;20027;-85
2020/12/24 09:40:41;;;;;;;2.87;0.27;;;7.10;99.90;;;;;;6209535;23;20005;-86
2020/12/24 09:43:07;;;;;;;2.57;0.43;;;7.10;99.90;;;;;;6213054;23;20443;-86
2020/12/24 09:45:34;;;;;;;5.57;0.30;;;7.10;99.90;;;;;;6213076;23;20008;-86
2020/12/24 09:48:00;;;;;;;2.67;0.40;;;7.10;99.90;;;;;;6214967;23;20315;-85
2020/12/24 09:50:26;;;;;;;1.67;0.40;;;7.10;99.90;;;;;;6218751;23;20028;-85
2020/12/24 09:52:52;;;;;;;2.33;0.27;;;7.10;99.90;;;;;;6216601;23;20001;-86
2020/12/24 09:55:17;;;;;;;2.67;0.40;;;7.20;99.90;;;;;;6216979;23;20008;-91
2020/12/24 09:57:43;;;;;;;4.07;0.30;;;7.20;99.90;;;;;;6217026;23;20005;-91
2020/12/24 10:00:10;;;;;;;3.20;0.33;;;7.20;99.90;;;;;;6216722;23;20008;-91
2020/12/24 10:02:37;;;;;;;2.80;0.40;;;7.30;99.90;;;;;;6216694;23;20039;-91
2020/12/24 10:05:03;;;;;;;5.03;0.50;;;7.20;99.90;;;;;;6216309;23;20004;-91
2020/12/24 10:07:29;;;;;;;2.63;0.50;;;7.30;99.90;;;;;;6216315;23;20001;-92
2020/12/24 10:09:57;;;;;;;2.20;0.30;;;7.20;99.90;;;;;;6216043;23;19996;-92
2020/12/24 10:12:24;;;;;;;1.73;0.20;;;7.30;99.90;;;;;;6216400;23;20001;-91
2020/12/24 10:14:51;;;;;;;3.60;0.43;;;7.20;99.90;;;;;;6232219;23;20001;-92
2020/12/24 10:17:17;;;;;;;2.67;0.30;;;7.30;99.90;;;;;;6239478;23;20151;-92
2020/12/24 10:19:44;;;;;;;3.20;0.43;;;7.20;99.90;;;;;;6217471;23;20380;-92
2020/12/24 10:22:14;;;;;;;1.90;0.40;;;7.30;99.90;;;;;;6216121;23;20014;-92
2020/12/24 10:24:40;;;;;;;2.90;0.50;;;7.20;99.90;;;;;;6216948;23;20078;-92
2020/12/24 10:27:06;;;;;;;3.50;0.60;;;7.20;99.90;;;;;;6215775;23;20009;-91
2020/12/24 10:29:33;;;;;;;3.30;0.90;;;7.20;99.90;;;;;;6215654;23;20005;-91
2020/12/24 10:31:59;;;;;;;3.43;0.37;;;7.30;99.90;;;;;;6215408;23;20008;-91
2020/12/24 10:34:25;;;;;;;2.97;0.30;;;7.30;99.90;;;;;;6215748;23;20005;-92
2020/12/24 10:36:51;;;;;;;3.23;0.33;;;7.20;99.90;;;;;;6216363;23;20004;-91
2020/12/24 10:39:17;;;;;;;2.37;0.20;;;7.40;99.90;;;;;;6215148;23;20109;-92
2020/12/24 10:41:48;;;;;;;1.20;0.20;;;7.50;99.90;;;;;;6216927;23;20438;-92
2020/12/24 10:44:14;;;;;;;5.00;0.45;;;7.50;99.90;;;;;;6215723;23;20004;-91
2020/12/24 10:46:40;;;;;;;1.70;0.30;;;7.50;99.90;;;;;;6214949;23;20005;-91
2020/12/24 10:49:05;;;;;;;1.97;0.40;;;7.60;99.90;;;;;;6215095;23;20050;-91
2020/12/24 10:51:31;;;;;;;2.07;0.30;;;7.60;99.90;;;;;;6214778;23;20041;-92
2020/12/24 10:53:57;;;;;;;3.57;0.33;;;7.60;99.90;;;;;;6213522;23;20011;-91
2020/12/24 10:56:23;;;;;;;2.97;0.50;;;7.60;99.90;;;;;;6212432;23;20001;-91
2020/12/24 10:58:49;;;;;;;4.13;0.57;;;7.60;99.90;;;;;;6213431;23;20062;-88
2020/12/24 11:01:17;;;;;;;1.33;0.30;;;7.70;99.90;;;;;;6212426;23;20006;-88
2020/12/24 11:03:43;;;;;;;2.53;0.30;;;7.70;99.90;;;;;;6212607;23;20032;-88
2020/12/24 11:06:20;;;;;;;1.60;0.30;;;7.80;99.90;;;;;;6211245;23;20012;-88
2020/12/24 11:08:51;;;;;;;1.27;0.10;;;7.80;99.90;;;;;;6223098;23;19997;-88
2020/12/24 11:11:18;;;;;;;3.07;0.30;;;7.90;99.90;;;;;;6214553;23;20098;-88
2020/12/24 11:13:45;;;;;;;0.93;0.20;;;7.90;99.90;;;;;;6212823;23;20087;-88
2020/12/24 11:16:20;;;;;;;1.80;0.20;;;7.90;99.90;;;;;;6212218;23;20016;-88
2020/12/24 11:18:46;;;;;;;3.17;0.20;;;7.90;99.90;;;;;;6214245;23;20004;-89
2020/12/24 11:21:11;;;;;;;1.93;0.20;;;7.90;99.90;;;;;;6212923;23;20088;-88
2020/12/24 11:23:37;;;;;;;3.07;0.30;;;7.90;99.90;;;;;;6212538;23;20620;-88
2020/12/24 11:26:03;;;;;;;1.60;0.30;;;7.90;99.90;;;;;;6212466;23;20015;-89
2020/12/24 11:28:29;;;;;;;1.93;0.20;;;7.90;99.90;;;;;;6212261;23;19997;-87
2020/12/24 11:30:56;;;;;;;0.93;0.10;;;7.90;99.90;;;;;;6207305;23;20059;-88
2020/12/24 11:33:21;;;;;;;1.60;0.17;;;7.90;99.90;;;;;;6186561;23;20467;-89
2020/12/24 11:35:47;;;;;;;1.40;0.30;;;8.00;99.90;;;;;;6212438;23;20008;-89
2020/12/24 11:38:13;;;;;;;1.23;0.20;;;8.00;99.90;;;;;;6204533;23;20471;-89
2020/12/24 11:40:39;;;;;;;0.70;0.10;;;8.00;99.90;;;;;;6211537;23;20104;-89
2020/12/24 11:43:04;;;;;;;1.17;0.13;;;8.00;99.90;;;;;;6211428;23;20423;-88
2020/12/24 11:45:31;;;;;;;3.13;0.30;;;8.00;99.90;;;;;;6212129;23;20106;-89
2020/12/24 11:47:57;;;;;;;0.90;0.10;;;8.00;99.90;;;;;;6212055;23;20078;-88
2020/12/24 11:50:23;;;;;;;1.23;0.20;;;8.00;99.90;;;;;;6191709;23;20009;-90
2020/12/24 11:52:49;;;;;;;1.40;0.13;;;8.10;99.90;;;;;;6235760;23;20479;-88
2020/12/24 11:55:15;;;;;;;1.37;0.10;;;8.10;99.90;;;;;;6234624;23;20070;-88
2020/12/24 11:57:41;;;;;;;0.83;0.20;;;8.00;99.90;;;;;;6216469;23;20004;-88
2020/12/24 12:00:09;;;;;;;1.63;0.20;;;8.10;99.90;;;;;;6213975;23;20518;-88
2020/12/24 12:02:35;;;;;;;1.90;0.10;;;8.10;99.90;;;;;;6213490;23;20379;-88
2020/12/24 12:05:05;;;;;;;1.80;0.20;;;8.10;99.90;;;;;;6223905;23;20027;-89
2020/12/24 12:07:31;;;;;;;0.57;0.10;;;8.20;99.90;;;;;;6217685;23;20020;-88
2020/12/24 12:09:57;;;;;;;1.67;0.10;;;8.20;99.90;;;;;;6211468;23;20000;-88
2020/12/24 12:12:23;;;;;;;2.30;0.20;;;8.30;99.90;;;;;;6186856;23;20001;-88
2020/12/24 12:14:49;;;;;;;1.90;0.20;;;8.20;99.90;;;;;;6212415;23;20015;-88
2020/12/24 12:17:17;;;;;;;3.07;0.40;;;8.20;99.90;;;;;;6212362;23;20107;-89
2020/12/24 12:19:46;;;;;;;2.37;0.20;;;8.30;99.90;;;;;;6212341;23;20088;-88
2020/12/24 12:22:12;;;;;;;3.53;0.20;;;8.30;99.90;;;;;;6211844;23;20015;-88
2020/12/24 12:24:39;;;;;;;1.73;0.20;;;8.30;99.90;;;;;;6213555;23;20011;-90
2020/12/24 12:27:06;;;;;;;1.70;0.27;;;8.30;99.90;;;;;;6214930;23;20015;-89
2020/12/24 12:29:32;;;;;;;1.33;0.20;;;8.40;99.90;;;;;;6214590;23;20005;-90
2020/12/24 12:31:58;;;;;;;1.30;0.20;;;8.30;99.90;;;;;;6215458;23;20466;-90
2020/12/24 12:34:24;;;;;;;0.83;0.20;;;8.30;99.90;;;;;;6213144;23;20001;-90
2020/12/24 12:36:49;;;;;;;0.47;0.10;;;8.30;99.90;;;;;;6215765;23;20004;-89
2020/12/24 12:39:18;;;;;;;1.53;0.20;;;8.30;99.90;;;;;;6212667;23;20044;-90
2020/12/24 12:41:44;;;;;;;0.93;0.10;;;8.40;99.90;;;;;;6214388;23;20005;-89
2020/12/24 12:44:09;;;;;;;2.00;0.20;;;8.30;99.90;;;;;;6217421;23;20005;-90
2020/12/24 12:46:35;;;;;;;1.00;0.20;;;8.30;99.90;;;;;;6188619;23;20290;-89
2020/12/24 12:49:01;;;;;;;0.67;0.10;;;8.20;99.90;;;;;;6214374;23;20080;-89
2020/12/24 12:51:26;;;;;;;0.73;0.17;;;8.20;99.90;;;;;;6217062;23;20377;-89
2020/12/24 12:53:52;;;;;;;2.07;0.10;;;8.20;99.90;;;;;;6212926;23;20004;-89
2020/12/24 12:56:22;;;;;;;0.37;0.10;;;8.10;99.90;;;;;;6211395;23;20016;-90
2020/12/24 12:58:49;;;;;;;0.37;0.10;;;8.10;99.90;;;;;;6214454;23;20008;-89
2020/12/24 13:01:16;;;;;;;1.70;0.10;;;8.10;99.90;;;;;;6216047;23;20013;-89